Time;durP1;ratioP1;P1;durP2;ratioP2;P2;SDS_P1;SDS_P2;PMS_P1;PMS_P2;Temp;Humidity;BMP_temperature;BMP_pressure;BME280_temperature;BME280_humidity;BME280_pressure;Samples;Min_cycle;Max_cycle;Signal;HPM_P1;HPM_P2
2023/01/06 00:01:10;;;;;;;2.37;0.90;;;;;;;-0.57;100.00;101394.34;4930797;29;20058;-82
2023/01/06 00:03:40;;;;;;;2.83;1.00;;;;;;;-0.48;100.00;101397.28;4931757;29;20054;-82
2023/01/06 00:06:08;;;;;;;3.67;1.10;;;;;;;-0.59;100.00;101398.59;4933198;29;20047;-83
2023/01/06 00:08:35;;;;;;;2.03;1.33;;;;;;;-0.66;100.00;101396.63;4948524;29;20134;-83
2023/01/06 00:11:10;;;;;;;4.00;1.10;;;;;;;-0.80;100.00;101390.91;4929751;29;20066;-83
2023/01/06 00:13:37;;;;;;;2.07;1.00;;;;;;;-0.70;100.00;101392.13;4934047;29;20055;-82
2023/01/06 00:16:09;;;;;;;1.43;1.23;;;;;;;-0.71;100.00;101396.44;4950458;28;20047;-82
2023/01/06 00:18:36;;;;;;;1.90;1.10;;;;;;;-0.94;100.00;101405.06;4934248;28;20050;-83
2023/01/06 00:21:03;;;;;;;2.27;1.20;;;;;;;-0.85;100.00;101401.09;4940844;28;20066;-82
2023/01/06 00:23:30;;;;;;;2.97;1.13;;;;;;;-0.90;100.00;101391.41;4917760;28;20044;-82
2023/01/06 00:25:57;;;;;;;2.30;1.10;;;;;;;-0.97;100.00;101392.00;4954078;28;20058;-81
2023/01/06 00:28:23;;;;;;;3.67;1.57;;;;;;;-1.01;100.00;101400.47;4937923;29;20051;-82
2023/01/06 00:30:50;;;;;;;2.37;1.00;;;;;;;-1.11;100.00;101406.13;4938726;28;20528;-82
2023/01/06 00:33:17;;;;;;;2.97;1.00;;;;;;;-1.16;100.00;101396.47;4945575;28;20101;-82
2023/01/06 00:35:44;;;;;;;1.53;1.00;;;;;;;-1.04;100.00;101395.16;4950729;28;20085;-81
2023/01/06 00:38:10;;;;;;;1.90;1.30;;;;;;;-0.92;100.00;101388.75;4919704;29;20110;-82
2023/01/06 00:40:37;;;;;;;2.30;1.00;;;;;;;-0.97;100.00;101385.09;4934486;29;20043;-81
2023/01/06 00:43:04;;;;;;;6.57;1.57;;;;;;;-1.10;100.00;101388.03;4940444;29;20550;-81
2023/01/06 00:45:30;;;;;;;2.87;1.10;;;;;;;-1.17;100.00;101392.13;4918472;29;20661;-82
2023/01/06 00:47:57;;;;;;;2.17;1.37;;;;;;;-1.11;100.00;101388.88;4949335;28;20498;-82
2023/01/06 00:50:24;;;;;;;3.00;1.00;;;;;;;-1.07;100.00;101392.47;4927467;28;20142;-81
2023/01/06 00:52:50;;;;;;;1.60;1.20;;;;;;;-1.17;100.00;101396.44;4962140;28;20043;-81
2023/01/06 00:55:17;;;;;;;1.73;1.03;;;;;;;-1.23;100.00;101391.00;4919023;29;20047;-81
2023/01/06 00:57:44;;;;;;;1.70;1.10;;;;;;;-1.22;100.00;101388.47;4934129;29;20051;-81
2023/01/06 01:00:11;;;;;;;2.70;1.13;;;;;;;-1.18;100.00;101386.84;4935809;28;20491;-82
2023/01/06 01:02:38;;;;;;;6.60;1.40;;;;;;;-1.11;100.00;101382.78;4937237;29;20054;-82
2023/01/06 01:05:05;;;;;;;3.47;1.10;;;;;;;-1.11;100.00;101390.56;4939456;29;20040;-82
2023/01/06 01:07:31;;;;;;;1.90;1.20;;;;;;;-1.04;100.00;101377.91;4955373;29;20142;-82
2023/01/06 01:09:58;;;;;;;1.80;1.10;;;;;;;-0.73;100.00;101366.97;4954722;29;20047;-81
2023/01/06 01:12:25;;;;;;;3.57;1.57;;;;;;;-0.52;100.00;101368.56;4939088;29;20039;-83
2023/01/06 01:14:53;;;;;;;2.17;1.10;;;;;;;-0.71;100.00;101344.53;4937122;29;20492;-82
2023/01/06 01:17:22;;;;;;;1.63;1.00;;;;;;;-0.66;100.00;101360.28;4938060;29;20043;-82
2023/01/06 01:19:51;;;;;;;2.97;1.30;;;;;;;-0.67;100.00;101355.94;4953296;28;20039;-82
2023/01/06 01:22:17;;;;;;;3.00;0.97;;;;;;;-0.71;100.00;101354.91;4960671;28;20039;-81
2023/01/06 01:24:44;;;;;;;3.03;0.97;;;;;;;-0.76;100.00;101352.97;4930968;28;20414;-81
2023/01/06 01:27:11;;;;;;;2.83;0.97;;;;;;;-0.72;100.00;101370.44;4943074;29;20046;-82
2023/01/06 01:29:37;;;;;;;2.20;1.03;;;;;;;-0.67;100.00;101379.28;4949624;28;20099;-81
2023/01/06 01:32:04;;;;;;;3.43;1.17;;;;;;;-0.61;100.00;101388.16;4944895;28;20044;-81
2023/01/06 01:34:31;;;;;;;2.10;1.30;;;;;;;-0.51;100.00;101388.47;4958505;28;20035;-82
2023/01/06 01:36:58;;;;;;;4.40;1.40;;;;;;;-0.46;100.00;101371.38;4937272;28;20048;-81
2023/01/06 01:39:26;;;;;;;1.70;1.20;;;;;;;-0.37;100.00;101376.88;4940880;28;20043;-81
2023/01/06 01:41:54;;;;;;;5.33;1.97;;;;;;;-0.30;100.00;101369.38;4940880;29;20046;-81
2023/01/06 01:44:56;;;;;;;2.03;1.30;;;;;;;-0.17;100.00;101373.28;4927820;29;20047;-82
2023/01/06 01:47:42;;;;;;;3.83;1.60;;;;;;;-0.22;100.00;101382.63;4950655;28;20411;-82
2023/01/06 01:50:18;;;;;;;2.67;1.33;;;;;;;-0.32;100.00;101385.72;4946685;28;20461;-81
2023/01/06 01:52:49;;;;;;;3.97;1.50;;;;;;;-0.24;100.00;101373.91;4954029;28;20090;-81
2023/01/06 01:55:16;;;;;;;3.07;1.60;;;;;;;-0.20;100.00;101370.56;4922545;29;20066;-81
2023/01/06 01:57:55;;;;;;;5.17;1.27;;;;;;;-0.24;100.00;101379.09;4953025;29;20048;-81
2023/01/06 02:00:22;;;;;;;3.07;1.50;;;;;;;-0.22;100.00;101380.03;4952731;29;20045;-81
2023/01/06 02:02:49;;;;;;;2.73;1.37;;;;;;;-0.21;100.00;101368.81;4934674;29;20044;-81
2023/01/06 02:05:18;;;;;;;3.90;2.17;;;;;;;-0.11;100.00;101354.41;4938017;29;20486;-81
2023/01/06 02:07:46;;;;;;;2.83;1.57;;;;;;;-0.07;100.00;101357.19;4953702;28;20495;-81
2023/01/06 02:10:21;;;;;;;1.77;1.00;;;;;;;-0.01;100.00;101362.56;4938085;29;20039;-81
2023/01/06 02:12:51;;;;;;;6.27;1.40;;;;;;;0.08;100.00;101367.16;4908426;28;20085;-80
2023/01/06 02:15:30;;;;;;;2.53;1.10;;;;;;;-0.05;100.00;101360.69;4938300;29;20051;-81
2023/01/06 02:18:21;;;;;;;2.93;1.83;;;;;;;0.03;100.00;101358.38;4938072;29;20521;-81
2023/01/06 02:20:58;;;;;;;5.20;1.27;;;;;;;0.01;100.00;101357.44;4952290;29;20098;-81
2023/01/06 02:23:52;;;;;;;4.23;1.27;;;;;;;0.13;100.00;101357.81;4937763;28;20055;-81
2023/01/06 02:26:59;;;;;;;4.47;1.37;;;;;;;0.24;100.00;101351.25;4934290;29;20047;-81
2023/01/06 02:29:49;;;;;;;1.70;1.20;;;;;;;0.31;100.00;101347.16;4924099;28;20299;-80
2023/01/06 02:32:45;;;;;;;4.10;1.20;;;;;;;0.28;100.00;101350.53;4936704;28;20113;-81
2023/01/06 02:35:40;;;;;;;2.57;1.57;;;;;;;0.08;100.00;101342.91;4969083;28;20043;-81
2023/01/06 02:38:25;;;;;;;3.73;1.30;;;;;;;0.01;100.00;101338.38;4934966;29;20046;-81
2023/01/06 02:41:07;;;;;;;2.57;1.67;;;;;;;0.17;100.00;101331.13;4956203;28;20123;-81
2023/01/06 02:44:12;;;;;;;2.80;1.30;;;;;;;0.14;100.00;101319.75;4966437;28;20047;-82
2023/01/06 02:46:59;;;;;;;3.75;1.20;;;;;;;0.22;100.00;101315.66;4961911;28;20509;-81
2023/01/06 02:49:41;;;;;;;3.33;1.90;;;;;;;0.28;100.00;101308.97;4940995;28;20047;-80
2023/01/06 02:52:30;;;;;;;3.03;1.50;;;;;;;0.26;100.00;101318.44;4956551;28;20469;-81
2023/01/06 02:55:05;;;;;;;3.00;1.60;;;;;;;0.38;100.00;101310.13;4932683;29;20122;-81
2023/01/06 02:57:44;;;;;;;2.80;1.30;;;;;;;0.27;100.00;101308.91;4947956;29;20035;-81
2023/01/06 03:00:21;;;;;;;3.80;1.50;;;;;;;0.36;100.00;101301.41;4949035;29;20036;-81
2023/01/06 03:02:53;;;;;;;3.73;1.53;;;;;;;0.49;100.00;101294.84;4918837;29;20048;-81
2023/01/06 03:05:22;;;;;;;3.07;1.50;;;;;;;0.43;100.00;101295.56;4921380;29;20050;-81
2023/01/06 03:07:50;;;;;;;2.63;1.60;;;;;;;0.47;100.00;101301.72;4936064;29;20047;-81
2023/01/06 03:10:19;;;;;;;2.63;1.17;;;;;;;0.52;100.00;101302.75;4936946;29;20042;-81
2023/01/06 03:13:16;;;;;;;3.03;1.97;;;;;;;0.62;100.00;101306.50;4940412;28;20042;-80
2023/01/06 03:15:43;;;;;;;3.73;1.87;;;;;;;0.60;100.00;101300.41;4911786;28;20059;-81
2023/01/06 03:18:11;;;;;;;3.27;2.10;;;;;;;0.62;100.00;101299.59;4944807;28;20067;-81
2023/01/06 03:20:38;;;;;;;4.73;1.80;;;;;;;0.79;100.00;101292.28;4939242;28;20038;-81
2023/01/06 03:23:05;;;;;;;3.77;1.40;;;;;;;0.71;100.00;101289.47;4942175;28;20049;-81
2023/01/06 03:25:32;;;;;;;5.27;1.70;;;;;;;0.89;100.00;101283.91;4940342;29;20040;-86
2023/01/06 03:27:59;;;;;;;3.80;1.53;;;;;;;0.89;100.00;101289.09;4920536;29;20040;-82
2023/01/06 03:30:27;;;;;;;2.77;1.40;;;;;;;0.98;100.00;101291.97;4948090;29;20637;-85
2023/01/06 03:32:53;;;;;;;3.73;1.60;;;;;;;0.95;100.00;101289.28;4947425;29;20043;-85
2023/01/06 03:35:58;;;;;;;4.90;1.80;;;;;;;1.01;100.00;101283.34;4974640;28;20043;-82
2023/01/06 03:38:40;;;;;;;4.07;1.70;;;;;;;1.08;100.00;101277.50;4952716;28;20051;-82
2023/01/06 03:44:36;;;;;;;3.90;1.93;;;;;;;1.11;100.00;101259.38;4950321;28;20047;-82
2023/01/06 03:47:06;;;;;;;3.70;1.60;;;;;;;1.24;100.00;101237.16;4932048;29;20048;-82
2023/01/06 03:49:54;;;;;;;6.30;2.80;;;;;;;1.25;100.00;101246.72;4921124;28;21016;-82
2023/01/06 03:52:28;;;;;;;3.07;1.60;;;;;;;1.23;100.00;101232.78;4931308;28;20039;-82
2023/01/06 03:55:05;;;;;;;4.33;1.90;;;;;;;1.50;100.00;101245.66;4945307;28;20051;-82
2023/01/06 03:57:43;;;;;;;2.03;1.30;;;;;;;1.44;100.00;101248.13;4940619;29;20059;-82
2023/01/06 04:00:21;;;;;;;6.03;2.33;;;;;;;1.40;100.00;101257.53;4946424;28;20055;-82
2023/01/06 04:02:48;;;;;;;3.27;1.60;;;;;;;1.28;100.00;101250.31;4931498;29;20126;-82
2023/01/06 04:05:20;;;;;;;5.33;1.60;;;;;;;1.31;100.00;101252.97;4938824;28;20512;-82
2023/01/06 04:07:47;;;;;;;4.67;1.83;;;;;;;1.44;100.00;101248.13;4940934;28;20046;-83
2023/01/06 04:10:16;;;;;;;4.53;1.87;;;;;;;1.44;100.00;101254.19;4951051;29;20102;-82
2023/01/06 04:12:43;;;;;;;4.00;1.93;;;;;;;1.50;100.00;101250.84;4920836;29;20035;-84
2023/01/06 04:15:15;;;;;;;4.47;1.47;;;;;;;1.62;100.00;101249.47;4950852;28;20055;-82
2023/01/06 04:17:42;;;;;;;7.57;1.80;;;;;;;1.52;100.00;101250.06;4929251;29;20039;-82
2023/01/06 04:20:13;;;;;;;4.17;1.73;;;;;;;1.50;100.00;101245.66;4941376;28;20050;-83
2023/01/06 04:22:39;;;;;;;5.33;2.00;;;;;;;1.50;100.00;101238.72;4959387;28;20039;-82
2023/01/06 04:25:07;;;;;;;4.43;2.03;;;;;;;1.54;100.00;101232.75;4935887;29;20055;-81
2023/01/06 04:27:33;;;;;;;3.97;2.10;;;;;;;1.53;100.00;101230.13;4961992;28;20031;-83
2023/01/06 04:30:00;;;;;;;3.70;1.97;;;;;;;1.57;100.00;101216.31;4928552;28;20523;-83
2023/01/06 04:32:26;;;;;;;6.87;2.13;;;;;;;1.70;100.00;101213.19;4931972;28;20047;-82
2023/01/06 04:34:53;;;;;;;6.03;1.53;;;;;;;1.72;100.00;101206.28;4935775;28;20163;-83
2023/01/06 04:37:20;;;;;;;2.40;1.60;;;;;;;1.87;100.00;101210.97;4943312;28;20042;-83
2023/01/06 04:39:47;;;;;;;4.40;1.90;;;;;;;1.83;100.00;101196.97;4931134;29;20039;-82
2023/01/06 04:42:13;;;;;;;3.27;1.93;;;;;;;1.77;100.00;101209.88;4917045;29;20063;-84
2023/01/06 04:44:41;;;;;;;4.07;2.13;;;;;;;1.88;100.00;101203.19;4940735;28;20067;-84
2023/01/06 04:47:09;;;;;;;4.33;1.53;;;;;;;1.90;100.00;101200.63;4922024;29;20047;-83
2023/01/06 04:49:35;;;;;;;4.93;1.80;;;;;;;1.89;100.00;101194.53;4948649;28;20549;-82
2023/01/06 04:52:02;;;;;;;3.50;1.57;;;;;;;1.91;100.00;101184.13;4928479;29;20074;-84
2023/01/06 04:54:29;;;;;;;3.97;1.60;;;;;;;1.81;100.00;101177.84;4935168;29;20047;-82
2023/01/06 04:56:55;;;;;;;5.47;1.87;;;;;;;1.92;100.00;101180.69;4934584;29;20078;-81
2023/01/06 04:59:22;;;;;;;5.20;1.57;;;;;;;1.85;100.00;101173.56;4953428;28;20183;-83
2023/01/06 05:01:49;;;;;;;3.70;1.80;;;;;;;2.01;100.00;101177.41;4940662;28;20117;-82
2023/01/06 05:04:16;;;;;;;2.93;1.40;;;;;;;1.91;100.00;101177.19;4923104;29;20052;-82
2023/01/06 05:06:42;;;;;;;2.33;1.40;;;;;;;1.93;100.00;101170.31;4944920;29;20043;-83
2023/01/06 05:09:09;;;;;;;2.50;1.57;;;;;;;1.93;100.00;101172.03;4934280;29;20040;-82
2023/01/06 05:11:36;;;;;;;4.27;2.00;;;;;;;2.04;100.00;101173.16;4926381;29;20039;-82
2023/01/06 05:14:02;;;;;;;3.97;1.80;;;;;;;2.07;100.00;101160.19;4904804;29;20050;-82
2023/01/06 05:16:31;;;;;;;4.93;1.97;;;;;;;1.97;100.00;101161.72;4939443;29;20075;-82
2023/01/06 05:18:58;;;;;;;4.53;1.47;;;;;;;2.00;100.00;101158.28;4956760;28;20510;-82
2023/01/06 05:21:27;;;;;;;3.00;1.60;;;;;;;2.08;100.00;101154.13;4925262;28;20039;-84
2023/01/06 05:23:57;;;;;;;3.83;1.60;;;;;;;2.13;100.00;101157.72;4951827;28;20043;-82
2023/01/06 05:26:25;;;;;;;4.00;1.43;;;;;;;2.18;100.00;101150.88;4936184;29;20134;-81
2023/01/06 05:28:52;;;;;;;4.30;1.70;;;;;;;2.17;100.00;101148.22;4938599;29;20089;-81
2023/01/06 05:31:19;;;;;;;3.13;1.47;;;;;;;2.25;100.00;101141.44;4953614;28;20494;-85
2023/01/06 05:33:45;;;;;;;3.63;1.87;;;;;;;2.18;100.00;101137.84;5078866;23;20107;-81
2023/01/06 05:36:14;;;;;;;3.63;1.70;;;;;;;2.20;100.00;101143.09;4960568;28;20056;-81
2023/01/06 05:38:41;;;;;;;2.73;2.20;;;;;;;2.30;100.00;101149.38;4955627;28;20054;-82
2023/01/06 05:41:08;;;;;;;2.87;1.77;;;;;;;2.34;100.00;101136.44;4992440;28;20042;-81
2023/01/06 05:43:35;;;;;;;7.13;2.47;;;;;;;2.32;100.00;101126.81;4976816;28;20062;-81
2023/01/06 05:46:07;;;;;;;5.57;2.93;;;;;;;2.37;100.00;101125.19;5007296;28;20037;-82
2023/01/06 05:48:33;;;;;;;5.97;1.90;;;;;;;2.30;100.00;101128.53;4989842;28;20054;-81
2023/01/06 05:51:05;;;;;;;3.03;1.77;;;;;;;2.30;100.00;101121.59;4976265;28;20071;-80
2023/01/06 05:53:33;;;;;;;3.70;1.70;;;;;;;2.39;100.00;101118.28;4961955;28;20126;-79
2023/01/06 05:56:01;;;;;;;3.67;1.90;;;;;;;2.43;100.00;101104.44;4973237;28;20045;-81
2023/01/06 05:58:28;;;;;;;3.63;1.83;;;;;;;2.38;100.00;101096.53;4936810;28;20043;-79
2023/01/06 06:00:55;;;;;;;4.17;2.00;;;;;;;2.38;100.00;101098.28;4971037;28;20053;-80
2023/01/06 06:03:21;;;;;;;4.03;2.00;;;;;;;2.49;100.00;101094.13;4987862;28;20047;-79
2023/01/06 06:05:48;;;;;;;4.93;2.00;;;;;;;2.50;100.00;101085.47;4993014;28;20049;-81
2023/01/06 06:08:15;;;;;;;6.57;2.27;;;;;;;2.42;100.00;101085.31;4968959;28;20042;-80
2023/01/06 06:10:41;;;;;;;6.77;3.07;;;;;;;2.48;100.00;101085.44;4993922;28;20120;-80
2023/01/06 06:13:08;;;;;;;3.47;1.80;;;;;;;2.52;100.00;101075.94;4976811;28;20043;-82
2023/01/06 06:15:35;;;;;;;5.57;1.90;;;;;;;2.45;100.00;101088.00;4957764;28;20050;-79
2023/01/06 06:18:02;;;;;;;3.07;1.63;;;;;;;2.49;100.00;101089.81;4994851;28;20042;-80
2023/01/06 06:20:29;;;;;;;3.50;2.00;;;;;;;2.64;100.00;101093.56;4976483;28;20030;-81
2023/01/06 06:22:55;;;;;;;5.77;2.67;;;;;;;2.63;100.00;101076.16;4953034;28;20046;-81
2023/01/06 06:25:22;;;;;;;5.30;2.07;;;;;;;2.51;100.00;101082.88;4975278;28;20801;-80
2023/01/06 06:27:49;;;;;;;4.53;2.27;;;;;;;2.56;100.00;101061.22;4965735;28;20035;-82
2023/01/06 06:30:16;;;;;;;3.27;1.53;;;;;;;2.71;100.00;101049.34;4980985;28;20093;-80
2023/01/06 06:32:42;;;;;;;3.47;1.63;;;;;;;2.65;100.00;101053.56;4947753;28;20398;-81
2023/01/06 06:35:09;;;;;;;3.13;1.73;;;;;;;2.72;100.00;101060.66;4983391;28;20046;-81
2023/01/06 06:37:36;;;;;;;4.37;1.90;;;;;;;2.72;100.00;101051.09;4976029;28;20046;-79
2023/01/06 06:40:03;;;;;;;6.37;2.67;;;;;;;2.73;100.00;101029.38;4967191;28;20046;-80
2023/01/06 06:42:29;;;;;;;4.63;1.60;;;;;;;2.69;100.00;101024.06;4977868;28;20490;-80
2023/01/06 06:44:56;;;;;;;4.97;1.63;;;;;;;2.68;100.00;101023.19;4962203;28;20101;-79
2023/01/06 06:47:23;;;;;;;3.37;1.87;;;;;;;2.76;100.00;101033.75;4970764;28;20047;-79
2023/01/06 06:49:50;;;;;;;4.07;1.60;;;;;;;2.74;100.00;101044.19;4952052;28;20043;-81
2023/01/06 06:52:16;;;;;;;4.27;1.67;;;;;;;2.75;100.00;101037.22;4994659;28;20068;-79
2023/01/06 06:54:43;;;;;;;3.23;1.70;;;;;;;2.72;100.00;101048.50;4962334;28;20113;-80
2023/01/06 06:57:09;;;;;;;6.13;1.70;;;;;;;2.67;100.00;101054.47;4962407;28;20051;-81
2023/01/06 06:59:36;;;;;;;3.20;1.87;;;;;;;2.70;100.00;101051.94;4951265;28;20522;-80
2023/01/06 07:02:03;;;;;;;5.77;2.30;;;;;;;2.65;100.00;101041.41;4953290;28;20038;-80
2023/01/06 07:04:30;;;;;;;3.97;1.67;;;;;;;2.67;100.00;101044.03;4963706;28;20046;-80
2023/01/06 07:06:56;;;;;;;8.10;2.17;;;;;;;2.68;100.00;101036.22;4953162;29;20058;-80
2023/01/06 07:09:23;;;;;;;3.97;1.70;;;;;;;2.66;100.00;101037.06;4975184;28;20042;-79
2023/01/06 07:11:50;;;;;;;3.53;1.70;;;;;;;2.69;100.00;101038.03;4945140;29;20039;-81
2023/01/06 07:14:16;;;;;;;3.70;1.80;;;;;;;2.77;100.00;101031.16;4949342;29;20067;-81
2023/01/06 07:16:43;;;;;;;5.07;2.20;;;;;;;2.75;100.00;101029.41;4958068;29;20055;-81
2023/01/06 07:19:10;;;;;;;2.97;2.00;;;;;;;2.70;100.00;101018.91;4944047;28;20515;-81
2023/01/06 07:21:37;;;;;;;7.77;2.40;;;;;;;2.78;100.00;101009.47;4961825;28;20074;-80
2023/01/06 07:24:04;;;;;;;5.10;2.70;;;;;;;2.82;100.00;101006.03;4979104;28;20687;-80
2023/01/06 07:26:30;;;;;;;5.23;2.30;;;;;;;2.82;100.00;101005.16;4960986;28;20497;-81
2023/01/06 07:28:57;;;;;;;7.83;2.60;;;;;;;2.88;100.00;101005.28;4976050;28;20043;-80
2023/01/06 07:31:23;;;;;;;3.83;2.07;;;;;;;2.88;100.00;101007.88;4969028;28;20035;-79
2023/01/06 07:33:51;;;;;;;4.10;1.83;;;;;;;2.87;100.00;101000.03;4955743;28;20051;-79
2023/01/06 07:36:18;;;;;;;5.13;2.30;;;;;;;2.82;100.00;101005.16;4958322;28;20035;-80
2023/01/06 07:38:44;;;;;;;3.40;2.07;;;;;;;2.90;100.00;101010.50;4964449;28;20042;-81
2023/01/06 07:41:11;;;;;;;3.03;1.80;;;;;;;2.87;100.00;101010.47;4970069;28;20030;-81
2023/01/06 07:43:38;;;;;;;3.77;2.40;;;;;;;2.91;100.00;101007.94;4979786;28;20035;-80
2023/01/06 07:46:04;;;;;;;4.40;2.03;;;;;;;2.83;100.00;101010.41;4970148;28;20035;-80
2023/01/06 07:48:31;;;;;;;3.80;2.20;;;;;;;2.96;100.00;101014.13;4952918;28;20521;-80
2023/01/06 07:50:58;;;;;;;2.63;1.90;;;;;;;2.92;100.00;101003.59;4969292;28;20053;-79
2023/01/06 07:53:25;;;;;;;3.23;2.00;;;;;;;2.97;100.00;101008.03;4985320;28;20151;-80
2023/01/06 07:55:52;;;;;;;5.47;1.97;;;;;;;2.92;100.00;101007.06;4979313;28;20041;-81
2023/01/06 07:58:19;;;;;;;2.80;2.30;;;;;;;2.97;100.00;101012.38;4965015;28;20494;-81
2023/01/06 08:00:46;;;;;;;4.80;2.20;;;;;;;3.01;100.00;101004.59;4961369;28;20049;-81
2023/01/06 08:03:12;;;;;;;4.23;2.20;;;;;;;2.90;100.00;101011.41;4942759;28;20125;-81
2023/01/06 08:05:40;;;;;;;4.97;2.73;;;;;;;2.94;100.00;101021.00;4940655;28;20046;-81
2023/01/06 08:08:08;;;;;;;4.40;2.17;;;;;;;2.85;100.00;101010.44;4957040;28;20513;-81
2023/01/06 08:10:38;;;;;;;4.40;2.63;;;;;;;2.85;100.00;101009.56;4970520;28;20494;-80
2023/01/06 08:13:04;;;;;;;5.97;2.90;;;;;;;3.00;100.00;101001.97;4968920;28;20479;-81
2023/01/06 08:15:31;;;;;;;3.53;2.40;;;;;;;3.09;100.00;100987.31;4969325;28;20465;-83
2023/01/06 08:17:58;;;;;;;4.37;2.10;;;;;;;3.10;100.00;100993.41;4953097;28;20149;-80
2023/01/06 08:20:24;;;;;;;6.23;2.77;;;;;;;3.17;100.00;100997.88;4954189;28;20085;-80
2023/01/06 08:22:51;;;;;;;3.97;2.07;;;;;;;3.19;100.00;100995.28;4954987;28;20038;-81
2023/01/06 08:25:18;;;;;;;5.27;2.40;;;;;;;3.12;100.00;100993.47;4975307;28;20039;-81
2023/01/06 08:27:44;;;;;;;4.63;2.00;;;;;;;3.09;100.00;100982.09;4958537;28;20481;-81
2023/01/06 08:30:11;;;;;;;4.07;2.40;;;;;;;3.09;100.00;100978.63;4956650;28;20047;-81
2023/01/06 08:32:38;;;;;;;6.50;2.73;;;;;;;3.14;100.00;100970.88;4952219;28;20047;-81
2023/01/06 08:35:05;;;;;;;3.97;2.30;;;;;;;3.25;100.00;100964.06;4951568;28;20050;-80
2023/01/06 08:37:31;;;;;;;6.40;2.70;;;;;;;3.24;100.00;100972.75;4971071;28;20066;-80
2023/01/06 08:39:58;;;;;;;6.07;2.50;;;;;;;3.28;100.00;100967.63;4939015;28;20489;-80
2023/01/06 08:42:25;;;;;;;5.37;2.57;;;;;;;3.30;100.00;100965.88;4954480;28;20043;-80
2023/01/06 08:44:51;;;;;;;5.90;3.10;;;;;;;3.22;100.00;100950.97;4971069;28;20038;-80
2023/01/06 08:47:18;;;;;;;4.63;2.50;;;;;;;3.31;100.00;100944.13;4938476;28;20070;-80
2023/01/06 08:49:45;;;;;;;6.07;3.00;;;;;;;3.36;100.00;100938.97;4958534;28;20039;-81
2023/01/06 08:52:11;;;;;;;6.50;2.90;;;;;;;3.36;100.00;100932.03;4943645;28;20047;-80
2023/01/06 08:54:38;;;;;;;4.30;2.93;;;;;;;3.44;100.00;100928.63;4956200;28;20441;-82
2023/01/06 08:57:05;;;;;;;4.53;2.93;;;;;;;3.48;100.00;100933.91;4964868;28;20417;-80
2023/01/06 08:59:31;;;;;;;5.90;2.73;;;;;;;3.50;100.00;100920.88;4959235;28;20050;-80
2023/01/06 09:01:58;;;;;;;4.33;2.73;;;;;;;3.49;100.00;100921.72;4970829;28;20046;-82
2023/01/06 09:04:25;;;;;;;4.80;3.10;;;;;;;3.52;100.00;100913.91;4968230;28;20062;-81
2023/01/06 09:06:52;;;;;;;5.13;3.03;;;;;;;3.51;100.00;100914.78;4950804;28;20050;-80
2023/01/06 09:09:18;;;;;;;5.70;2.80;;;;;;;3.39;100.00;100916.38;4955223;28;20046;-81
2023/01/06 09:11:45;;;;;;;5.37;2.77;;;;;;;3.48;100.00;100910.41;4987117;28;20039;-82
2023/01/06 09:14:14;;;;;;;8.50;3.20;;;;;;;3.72;100.00;100916.78;4974943;28;20520;-81
2023/01/06 09:16:41;;;;;;;4.40;3.00;;;;;;;3.64;100.00;100929.75;4936818;28;20109;-81
2023/01/06 09:19:11;;;;;;;7.20;3.07;;;;;;;3.59;100.00;100931.44;4954121;28;20039;-81
2023/01/06 09:21:37;;;;;;;6.83;4.03;;;;;;;3.59;100.00;100926.19;4965950;28;20038;-81
2023/01/06 09:24:04;;;;;;;6.07;3.27;;;;;;;3.66;100.00;100928.91;4975932;28;20625;-81
2023/01/06 09:26:31;;;;;;;5.50;3.20;;;;;;;3.60;100.00;100917.50;4977008;28;20501;-81
2023/01/06 09:28:57;;;;;;;6.90;2.87;;;;;;;3.79;100.00;100921.22;4969547;28;20654;-80
2023/01/06 09:31:25;;;;;;;8.23;3.57;;;;;;;3.73;100.00;100915.94;4951046;28;20040;-81
2023/01/06 09:33:52;;;;;;;8.83;3.80;;;;;;;3.82;100.00;100910.78;4948527;28;20049;-81
2023/01/06 09:36:19;;;;;;;8.53;4.37;;;;;;;3.92;100.00;100895.22;4991986;28;20042;-81
2023/01/06 09:38:45;;;;;;;8.43;4.00;;;;;;;3.88;100.00;100897.81;4953994;28;20047;-80
2023/01/06 09:41:30;;;;;;;6.97;3.93;;;;;;;3.83;100.00;100894.25;4979092;28;20398;-82
2023/01/06 09:44:05;;;;;;;13.63;5.40;;;;;;;3.89;100.00;100891.72;4972965;28;20557;-82
2023/01/06 09:46:35;;;;;;;10.73;4.93;;;;;;;3.94;100.00;100887.38;4954052;29;20047;-82
2023/01/06 09:49:14;;;;;;;9.17;4.70;;;;;;;3.96;100.00;100885.69;4967727;28;20129;-80
2023/01/06 09:51:42;;;;;;;12.63;6.17;;;;;;;4.09;100.00;100887.53;4965407;28;20390;-79
2023/01/06 09:54:17;;;;;;;13.33;5.50;;;;;;;4.02;100.00;100887.47;4967721;28;20042;-82
2023/01/06 09:56:47;;;;;;;8.67;6.07;;;;;;;4.10;100.00;100888.41;4966942;28;20412;-80
2023/01/06 09:59:29;;;;;;;9.37;5.80;;;;;;;4.13;100.00;100889.34;4967924;28;20047;-80
2023/01/06 10:01:58;;;;;;;11.57;5.27;;;;;;;4.18;100.00;100881.53;4980004;28;20031;-80
2023/01/06 10:04:27;;;;;;;8.07;5.37;;;;;;;4.22;100.00;100870.25;4961876;28;20066;-82
2023/01/06 10:07:05;;;;;;;13.33;6.80;;;;;;;4.34;100.00;100872.06;4992615;28;20038;-80
2023/01/06 10:09:42;;;;;;;11.27;5.67;;;;;;;4.27;100.00;100862.41;4967437;28;20047;-80
2023/01/06 10:12:38;;;;;;;13.10;6.40;;;;;;;4.36;100.00;100857.25;4992110;28;20043;-80
2023/01/06 10:15:54;;;;;;;12.70;5.43;;;;;;;4.45;100.00;100839.88;4954317;28;20046;-80
2023/01/06 10:18:29;;;;;;;10.37;7.17;;;;;;;4.40;100.00;100828.53;4933698;28;20066;-80
2023/01/06 10:21:06;;;;;;;10.90;6.77;;;;;;;4.38;100.00;100835.50;4983649;28;20035;-82
2023/01/06 10:23:38;;;;;;;11.00;6.00;;;;;;;4.36;100.00;100837.22;4951890;28;20047;-81
2023/01/06 10:26:16;;;;;;;10.53;6.50;;;;;;;4.41;100.00;100827.66;4964188;28;20055;-79
2023/01/06 10:28:44;;;;;;;17.57;6.70;;;;;;;4.46;100.00;100815.50;4978657;28;20053;-83
2023/01/06 10:31:14;;;;;;;14.80;8.20;;;;;;;4.46;100.00;100810.28;4984548;28;20038;-82
2023/01/06 10:33:45;;;;;;;14.50;7.63;;;;;;;4.47;100.00;100806.78;4960528;28;20043;-80
2023/01/06 10:36:14;;;;;;;11.40;6.37;;;;;;;4.64;100.00;100814.75;4965307;28;20089;-82
2023/01/06 10:38:43;;;;;;;12.80;7.20;;;;;;;4.65;100.00;100798.19;4961371;28;20046;-79
2023/01/06 10:41:25;;;;;;;13.90;6.87;;;;;;;4.65;100.00;100805.16;4973907;28;20049;-83
2023/01/06 10:43:52;;;;;;;14.63;7.50;;;;;;;4.62;100.00;100810.34;4960335;28;20097;-84
2023/01/06 10:46:19;;;;;;;13.37;7.20;;;;;;;4.67;100.00;100806.03;4971339;28;20053;-80
2023/01/06 10:48:48;;;;;;;15.93;7.60;;;;;;;4.65;100.00;100810.38;4965566;28;20102;-81
2023/01/06 10:51:35;;;;;;;15.43;7.50;;;;;;;4.74;100.00;100799.97;4964894;28;20482;-80
2023/01/06 10:54:15;;;;;;;11.43;6.90;;;;;;;4.74;100.00;100786.88;4959799;29;20146;-79
2023/01/06 10:56:45;;;;;;;25.00;8.57;;;;;;;4.86;100.00;100781.69;4978281;28;20044;-80
2023/01/06 10:59:13;;;;;;;20.47;8.83;;;;;;;4.87;100.00;100772.97;4948577;29;20439;-80
2023/01/06 11:01:48;;;;;;;18.13;8.60;;;;;;;4.92;100.00;100779.13;4971998;28;20133;-80
2023/01/06 11:04:16;;;;;;;13.53;7.97;;;;;;;4.92;100.00;100757.31;4935589;29;20043;-81
2023/01/06 11:06:49;;;;;;;18.37;8.23;;;;;;;4.96;100.00;100770.41;4943041;29;20102;-81
2023/01/06 11:09:38;;;;;;;24.77;12.32;;;;;;;5.02;100.00;100754.72;4957802;28;20043;-79
2023/01/06 11:12:12;;;;;;;28.10;14.23;;;;;;;5.11;100.00;100761.72;4942521;28;20043;-82
2023/01/06 11:14:39;;;;;;;20.88;9.52;;;;;;;5.09;100.00;100764.34;4942754;28;20110;-80
2023/01/06 11:17:08;;;;;;;17.73;8.63;;;;;;;5.17;100.00;100761.75;4942532;29;20541;-79
2023/01/06 11:19:40;;;;;;;16.27;8.67;;;;;;;5.15;100.00;100745.16;4942123;29;20039;-81
2023/01/06 11:22:35;;;;;;;17.27;10.20;;;;;;;5.22;100.00;100746.94;4940997;29;20043;-81
2023/01/06 11:25:20;;;;;;;18.30;9.40;;;;;;;5.25;100.00;100743.44;4949130;28;20058;-80
2023/01/06 11:28:11;;;;;;;17.83;9.47;;;;;;;5.43;100.00;100746.09;4979278;28;20079;-79
2023/01/06 11:30:51;;;;;;;19.43;9.23;;;;;;;5.34;100.00;100739.09;4970798;28;20137;-79
2023/01/06 11:33:23;;;;;;;18.47;10.90;;;;;;;5.43;100.00;100739.97;4962537;28;20066;-82
2023/01/06 11:35:50;;;;;;;22.87;11.73;;;;;;;5.40;100.00;100737.38;4976052;28;20041;-82
2023/01/06 11:38:18;;;;;;;29.77;16.20;;;;;;;5.54;100.00;100725.13;4954464;28;20581;-79
2023/01/06 11:40:52;;;;;;;25.87;11.93;;;;;;;5.56;100.00;100734.78;4969810;28;20043;-79